createdAt,value
2023-05-20T00:02:03.592Z,82.48
2023-05-20T00:06:05.283Z,79.58
2023-05-20T00:10:07.160Z,82.98
2023-05-20T00:14:08.695Z,86.84
2023-05-20T00:18:10.574Z,86.52
2023-05-20T00:22:12.204Z,88.44
2023-05-20T00:26:13.776Z,91.28
2023-05-20T00:30:16.499Z,91.19
2023-05-20T00:34:18.511Z,91.44
2023-05-20T00:38:20.196Z,93.55
2023-05-20T00:42:26.847Z,89.37
2023-05-20T00:46:29.448Z,91.11
2023-05-20T00:50:32.021Z,94.48
2023-05-20T00:54:33.997Z,95.37
2023-05-20T00:58:36.931Z,93.90
2023-05-20T01:02:39.855Z,94.34
2023-05-20T01:06:41.499Z,97.53
2023-05-20T01:10:47.270Z,93.71
2023-05-20T01:14:56.550Z,93.57
2023-05-20T01:18:59.763Z,95.61
2023-05-20T01:23:03.394Z,98.01
2023-05-20T01:27:05.327Z,100.00
2023-05-20T01:31:15.994Z,98.52
2023-05-20T01:35:18.387Z,100.00
2023-05-20T01:39:20.557Z,100.00
2023-05-20T01:43:23.510Z,100.00
2023-05-20T01:47:25.847Z,100.00
2023-05-20T01:51:27.870Z,100.00
2023-05-20T01:55:29.992Z,100.00
2023-05-20T01:59:31.853Z,100.00
2023-05-20T02:03:35.228Z,100.00
2023-05-20T02:07:36.891Z,100.00
2023-05-20T02:11:38.389Z,100.00
2023-05-20T02:15:42.905Z,100.00
2023-05-20T02:19:45.856Z,100.00
2023-05-20T02:23:47.619Z,100.00
2023-05-20T02:27:49.283Z,100.00
2023-05-20T02:31:51.201Z,100.00
2023-05-20T02:35:52.916Z,100.00
2023-05-20T02:39:56.148Z,100.00
2023-05-20T02:43:57.825Z,100.00
2023-05-20T02:47:59.627Z,100.00
2023-05-20T02:52:01.429Z,100.00
2023-05-20T02:56:04.420Z,100.00
2023-05-20T03:00:08.152Z,100.00
2023-05-20T03:04:09.710Z,100.00
2023-05-20T03:08:13.400Z,100.00
2023-05-20T03:12:14.918Z,100.00
2023-05-20T03:16:16.721Z,100.00
2023-05-20T03:20:20.475Z,100.00
2023-05-20T03:24:23.418Z,100.00
2023-05-20T03:28:24.991Z,100.00
2023-05-20T03:32:26.647Z,100.00
2023-05-20T03:36:28.539Z,100.00
2023-05-20T03:40:30.368Z,100.00
2023-05-20T03:44:32.388Z,100.00
2023-05-20T03:48:34.044Z,100.00
2023-05-20T03:52:35.841Z,100.00
2023-05-20T03:56:37.962Z,100.00
2023-05-20T04:00:40.049Z,100.00
2023-05-20T04:04:43.177Z,100.00
2023-05-20T04:08:45.860Z,100.00
2023-05-20T04:12:47.379Z,100.00
2023-05-20T04:16:50.183Z,100.00
2023-05-20T04:20:55.169Z,100.00
2023-05-20T04:24:57.048Z,100.00
2023-05-20T04:28:58.984Z,100.00
2023-05-20T04:33:02.735Z,98.05
2023-05-20T04:37:07.684Z,93.87
2023-05-20T04:41:09.366Z,97.04
2023-05-20T04:45:12.422Z,94.00
2023-05-20T04:49:15.318Z,96.99
2023-05-20T04:53:17.498Z,94.92
2023-05-20T04:57:21.130Z,88.30
2023-05-20T05:01:23.224Z,80.02
2023-05-20T05:05:25.788Z,79.31
2023-05-20T05:09:28.542Z,76.70
2023-05-20T05:13:32.262Z,69.50
2023-05-20T05:17:33.901Z,71.69
2023-05-20T05:21:36.204Z,82.40
2023-05-20T05:25:38.695Z,89.98
2023-05-20T05:29:40.430Z,100.00
2023-05-20T05:33:42.266Z,98.22
2023-05-20T05:37:44.213Z,98.91
2023-05-20T05:41:46.515Z,99.28
2023-05-20T05:45:48.595Z,95.56
2023-05-20T05:49:50.292Z,94.66
2023-05-20T05:53:51.969Z,95.25
2023-05-20T05:57:54.318Z,95.29
2023-05-20T06:01:57.678Z,92.35
2023-05-20T06:05:59.915Z,91.14
2023-05-20T06:10:01.921Z,93.13
2023-05-20T06:14:03.837Z,90.92
2023-05-20T06:18:05.760Z,92.17
2023-05-20T06:22:08.587Z,99.29
2023-05-20T06:26:10.766Z,100.00
2023-05-20T06:30:12.691Z,100.00
2023-05-20T06:34:14.743Z,100.00
2023-05-20T06:38:16.690Z,100.00
2023-05-20T06:42:18.538Z,100.00
2023-05-20T06:46:23.735Z,100.00
2023-05-20T06:50:30.276Z,100.00
2023-05-20T06:54:35.869Z,100.00
2023-05-20T06:58:37.812Z,98.90
2023-05-20T07:02:40.531Z,96.17
2023-05-20T07:06:42.476Z,92.17
2023-05-20T07:10:45.065Z,91.49
2023-05-20T07:14:46.624Z,85.83
2023-05-20T07:18:48.289Z,90.36
2023-05-20T07:22:51.010Z,83.91
2023-05-20T07:27:05.886Z,85.04
2023-05-20T07:31:07.616Z,78.65
2023-05-20T07:35:16.210Z,79.07
2023-05-20T07:39:18.561Z,79.29
2023-05-20T07:43:20.273Z,72.33
2023-05-20T07:47:22.025Z,69.24
2023-05-20T07:51:24.738Z,74.52
2023-05-20T07:55:28.373Z,79.50
2023-05-20T07:59:31.702Z,77.85
2023-05-20T08:03:33.852Z,80.33
2023-05-20T08:07:41.260Z,81.01
2023-05-20T08:11:45.829Z,77.03
2023-05-20T08:15:49.486Z,76.91
2023-05-20T08:19:51.312Z,78.58
2023-05-20T08:23:53.031Z,77.26
2023-05-20T08:27:54.801Z,85.32
2023-05-20T08:31:57.113Z,80.30
2023-05-20T08:36:02.021Z,84.09
2023-05-20T08:40:10.198Z,81.68
2023-05-20T08:44:13.234Z,82.20
2023-05-20T08:48:18.796Z,81.10
2023-05-20T08:52:23.284Z,78.11
2023-05-20T08:56:30.053Z,78.29
2023-05-20T09:00:35.023Z,79.44
2023-05-20T09:04:38.101Z,79.84
2023-05-20T09:08:40.463Z,73.83
2023-05-20T09:12:42.067Z,76.02
2023-05-20T09:16:43.850Z,75.90
2023-05-20T09:20:47.929Z,78.78
2023-05-20T09:24:50.969Z,77.10
2023-05-20T09:28:52.542Z,75.46
2023-05-20T09:32:59.974Z,75.42
2023-05-20T09:37:02.794Z,72.50
2023-05-20T09:41:10.439Z,81.89
2023-05-20T09:45:12.090Z,76.13
2023-05-20T09:49:14.558Z,74.34
2023-05-20T09:53:16.733Z,73.20
2023-05-20T09:57:20.565Z,70.21
2023-05-20T10:01:22.514Z,73.37
2023-05-20T10:05:38.205Z,76.58
2023-05-20T10:09:55.081Z,71.08
2023-05-20T10:14:17.182Z,67.53
2023-05-20T10:18:37.059Z,66.78
2023-05-20T10:22:40.352Z,68.02
2023-05-20T10:26:42.571Z,66.62
2023-05-20T10:30:49.838Z,60.18
2023-05-20T10:34:52.137Z,59.34
2023-05-20T10:38:59.364Z,62.04
2023-05-20T10:43:12.854Z,63.27
2023-05-20T10:51:20.151Z,65.41
2023-05-20T10:55:22.584Z,63.29
2023-05-20T10:59:24.773Z,63.75
2023-05-20T11:03:26.865Z,63.29
2023-05-20T11:07:29.828Z,61.48
2023-05-20T11:11:31.477Z,66.08
2023-05-20T11:15:34.420Z,59.91
2023-05-20T11:19:37.999Z,64.38
2023-05-20T11:23:40.673Z,68.91
2023-05-20T11:27:43.321Z,65.33
2023-05-20T11:31:45.066Z,65.11
2023-05-20T11:35:49.155Z,65.17
2023-05-20T11:40:09.809Z,65.29
2023-05-20T11:44:15.763Z,61.11
2023-05-20T11:48:17.271Z,59.68
2023-05-20T11:52:19.388Z,59.19
2023-05-20T11:56:21.925Z,61.23
2023-05-20T12:00:24.252Z,59.16
2023-05-20T12:04:27.761Z,59.35
2023-05-20T12:08:30.149Z,58.58
2023-05-20T12:12:32.442Z,58.01
2023-05-20T12:16:35.742Z,56.98
2023-05-20T12:20:37.964Z,57.21
2023-05-20T12:24:39.917Z,55.65
2023-05-20T12:28:41.666Z,57.78
2023-05-20T12:32:44.270Z,54.04
2023-05-20T12:36:46.324Z,52.50
2023-05-20T12:40:48.156Z,54.22
2023-05-20T12:44:49.930Z,55.91
2023-05-20T12:48:51.655Z,56.83
2023-05-20T12:52:53.313Z,55.87
2023-05-20T12:56:55.439Z,55.87
2023-05-20T13:00:57.586Z,55.64
2023-05-20T13:04:59.510Z,57.61
2023-05-20T13:09:01.202Z,56.89
2023-05-20T13:13:02.793Z,55.57
2023-05-20T13:17:04.586Z,57.59
2023-05-20T13:21:06.204Z,53.30
2023-05-20T13:25:09.030Z,57.31
2023-05-20T13:29:10.766Z,57.29
2023-05-20T13:33:12.481Z,57.61
2023-05-20T13:37:14.110Z,58.08
2023-05-20T13:41:15.985Z,59.18
2023-05-20T13:45:18.693Z,57.19
2023-05-20T13:49:21.211Z,54.02
2023-05-20T13:53:22.913Z,54.83
2023-05-20T13:57:24.585Z,56.63
2023-05-20T14:01:28.493Z,57.66
2023-05-20T14:05:33.714Z,58.81
2023-05-20T14:09:35.329Z,60.77
2023-05-20T14:13:36.831Z,55.23
2023-05-20T14:17:38.451Z,59.45
2023-05-20T14:21:40.073Z,60.49
2023-05-20T14:25:42.732Z,59.13
2023-05-20T14:29:44.420Z,55.55
2023-05-20T14:33:46.260Z,54.51
2023-05-20T14:37:48.054Z,52.01
2023-05-20T14:41:49.618Z,50.96
2023-05-20T14:45:52.587Z,51.44
2023-05-20T14:49:54.346Z,52.05
2023-05-20T14:53:56.038Z,51.20
2023-05-20T14:57:57.868Z,52.79
2023-05-20T15:01:59.933Z,54.83
2023-05-20T15:06:01.990Z,54.35
2023-05-20T15:10:04.139Z,49.88
2023-05-20T15:14:05.743Z,53.11
2023-05-20T15:18:07.659Z,51.13
2023-05-20T15:22:09.514Z,50.56
2023-05-20T15:26:13.848Z,49.92
2023-05-20T15:30:15.709Z,50.53
2023-05-20T15:34:18.070Z,50.53
2023-05-20T15:38:19.868Z,50.25
2023-05-20T15:42:21.558Z,52.54
2023-05-20T15:46:24.568Z,48.87
2023-05-20T15:50:28.115Z,50.54
2023-05-20T15:54:29.833Z,49.06
2023-05-20T15:58:31.635Z,49.42
2023-05-20T16:02:36.283Z,49.02
2023-05-20T16:06:38.757Z,48.12
2023-05-20T16:10:40.613Z,47.98
2023-05-20T16:14:42.587Z,47.17
2023-05-20T16:18:44.234Z,47.18
2023-05-20T16:22:46.236Z,50.07
2023-05-20T16:26:47.781Z,48.80
2023-05-20T16:30:49.423Z,46.74
2023-05-20T16:34:51.264Z,45.62
2023-05-20T16:38:52.888Z,46.50
2023-05-20T16:42:54.581Z,47.00
2023-05-20T16:46:56.329Z,45.41
2023-05-20T16:50:57.988Z,47.29
2023-05-20T16:55:03.109Z,44.11
2023-05-20T16:59:04.775Z,42.90
2023-05-20T17:03:06.819Z,47.15
2023-05-20T17:07:09.849Z,50.53
2023-05-20T17:11:11.985Z,49.10
2023-05-20T17:15:13.663Z,47.96
2023-05-20T17:19:15.484Z,45.58
2023-05-20T17:23:17.174Z,45.32
2023-05-20T17:27:18.815Z,45.33
2023-05-20T17:31:20.658Z,46.36
2023-05-20T17:35:25.493Z,47.18
2023-05-20T17:39:27.147Z,47.43
2023-05-20T17:43:28.914Z,47.18
2023-05-20T17:47:30.448Z,47.44
2023-05-20T17:51:32.628Z,46.11
2023-05-20T17:55:36.318Z,46.11
2023-05-20T17:59:41.445Z,47.49
2023-05-20T18:03:43.490Z,46.88
2023-05-20T18:07:45.457Z,48.37
2023-05-20T18:11:47.030Z,49.21
2023-05-20T18:15:48.540Z,49.51
2023-05-20T18:19:50.174Z,51.38
2023-05-20T18:23:52.728Z,55.25
2023-05-20T18:27:54.460Z,52.70
2023-05-20T18:31:56.177Z,53.75
2023-05-20T18:35:57.946Z,53.48
2023-05-20T18:39:59.660Z,55.28
2023-05-20T18:44:02.060Z,57.59
2023-05-20T18:48:05.122Z,58.46
2023-05-20T18:52:07.033Z,58.72
2023-05-20T18:56:09.008Z,58.32
2023-05-20T19:00:12.377Z,59.52
2023-05-20T19:04:14.673Z,60.63
2023-05-20T19:08:16.357Z,63.71
2023-05-20T19:12:17.815Z,62.04
2023-05-20T19:16:19.908Z,62.69
2023-05-20T19:20:21.605Z,64.98
2023-05-20T19:24:23.650Z,65.58
2023-05-20T19:28:25.171Z,64.84
2023-05-20T19:32:26.689Z,65.93
2023-05-20T19:36:28.317Z,65.16
2023-05-20T19:40:29.953Z,66.89
2023-05-20T19:44:31.672Z,68.97
2023-05-20T19:48:33.864Z,68.77
2023-05-20T19:52:35.601Z,69.79
2023-05-20T19:56:37.176Z,68.79
2023-05-20T20:00:39.054Z,71.21
2023-05-20T20:04:44.091Z,69.81
2023-05-20T20:08:45.805Z,69.09
2023-05-20T20:12:47.628Z,69.83
2023-05-20T20:16:49.652Z,73.38
2023-05-20T20:20:51.899Z,74.83
2023-05-20T20:24:53.469Z,77.79
2023-05-20T20:28:55.210Z,77.06
2023-05-20T20:32:57.277Z,78.40
2023-05-20T20:37:01.373Z,77.74
2023-05-20T20:41:03.776Z,77.34
2023-05-20T20:45:06.410Z,79.60
2023-05-20T20:49:08.010Z,80.78
2023-05-20T20:53:09.544Z,82.11
2023-05-20T20:57:11.531Z,84.41
2023-05-20T21:01:17.639Z,85.22
2023-05-20T21:05:21.361Z,87.61
2023-05-20T21:09:23.551Z,83.27
2023-05-20T21:13:31.201Z,87.48
2023-05-20T21:17:32.725Z,86.52
2023-05-20T21:21:34.331Z,85.72
2023-05-20T21:25:36.193Z,90.54
2023-05-20T21:29:39.704Z,90.35
2023-05-20T21:33:41.891Z,89.07
2023-05-20T21:37:43.740Z,86.34
2023-05-20T21:41:45.748Z,89.13
2023-05-20T21:45:47.398Z,91.43
2023-05-20T21:49:49.122Z,94.23
2023-05-20T21:53:50.759Z,97.62
2023-05-20T21:57:52.516Z,97.94
2023-05-20T22:01:55.992Z,98.66
2023-05-20T22:05:58.017Z,99.33
2023-05-20T22:10:00.733Z,99.77
2023-05-20T22:14:02.316Z,100.00
2023-05-20T22:18:06.804Z,100.00
2023-05-20T22:22:09.365Z,100.00
2023-05-20T22:26:10.910Z,99.45
2023-05-20T22:30:12.943Z,97.47
2023-05-20T22:34:14.675Z,98.64
2023-05-20T22:38:16.289Z,99.57
2023-05-20T22:42:17.974Z,100.00
2023-05-20T22:46:19.523Z,97.43
2023-05-20T22:50:21.078Z,95.92
2023-05-20T22:54:22.707Z,100.00
2023-05-20T22:58:24.319Z,100.00
2023-05-20T23:02:26.044Z,100.00
2023-05-20T23:06:27.999Z,100.00
2023-05-20T23:10:29.793Z,100.00
2023-05-20T23:14:31.442Z,100.00
2023-05-20T23:18:33.303Z,100.00
2023-05-20T23:22:34.786Z,100.00
2023-05-20T23:26:37.520Z,100.00
2023-05-20T23:30:39.103Z,100.00
2023-05-20T23:34:41.031Z,100.00
2023-05-20T23:38:42.562Z,100.00
2023-05-20T23:42:44.433Z,100.00
2023-05-20T23:46:46.112Z,100.00
2023-05-20T23:50:48.119Z,100.00
2023-05-20T23:54:50.027Z,100.00
2023-05-20T23:58:51.526Z,100.00
